Time;durP1;ratioP1;P1;durP2;ratioP2;P2;SDS_P1;SDS_P2;PMS_P1;PMS_P2;Temp;Humidity;BMP_temperature;BMP_pressure;BME280_temperature;BME280_humidity;BME280_pressure;Samples;Min_cycle;Max_cycle;Signal;HPM_P1;HPM_P2
2023/07/11 00:00:14;;;;;;;3.67;3.37;;;21.10;68.00;;;;;;5065216;28;20732;-73
2023/07/11 00:02:41;;;;;;;3.03;2.77;;;21.00;68.10;;;;;;5058927;28;20637;-73
2023/07/11 00:05:09;;;;;;;3.57;3.27;;;21.00;67.60;;;;;;5065607;28;20665;-73
2023/07/11 00:07:35;;;;;;;3.23;3.00;;;20.90;68.30;;;;;;5058865;28;20636;-73
2023/07/11 00:10:02;;;;;;;2.73;2.40;;;20.90;68.80;;;;;;5064976;28;20634;-73
2023/07/11 00:12:30;;;;;;;3.13;2.90;;;20.90;69.60;;;;;;5067459;28;20761;-73
2023/07/11 00:14:58;;;;;;;4.13;3.30;;;20.80;69.50;;;;;;5056283;28;20984;-73
2023/07/11 00:17:25;;;;;;;3.57;3.27;;;20.80;69.50;;;;;;5070658;28;20646;-73
2023/07/11 00:19:53;;;;;;;3.37;3.07;;;20.70;69.90;;;;;;5067860;28;20637;-73
2023/07/11 00:22:22;;;;;;;3.37;3.07;;;20.70;69.70;;;;;;5070455;28;20656;-73
2023/07/11 00:24:49;;;;;;;3.90;3.47;;;20.70;70.40;;;;;;5065756;28;21461;-74
2023/07/11 00:27:17;;;;;;;3.70;2.90;;;20.70;69.80;;;;;;5068718;28;20656;-74
2023/07/11 00:29:46;;;;;;;3.40;2.60;;;20.70;70.00;;;;;;5060863;28;20629;-73
2023/07/11 00:32:13;;;;;;;3.60;3.27;;;20.70;71.50;;;;;;5061866;28;20649;-73
2023/07/11 00:34:40;;;;;;;3.97;3.10;;;20.60;71.60;;;;;;5064841;28;20630;-73
2023/07/11 00:37:07;;;;;;;3.13;2.83;;;20.60;71.90;;;;;;5069425;28;20653;-73
2023/07/11 00:39:36;;;;;;;3.17;2.87;;;20.60;72.10;;;;;;5069077;28;20641;-73
2023/07/11 00:42:04;;;;;;;3.67;3.27;;;20.60;72.50;;;;;;5067494;28;20990;-73
2023/07/11 00:44:52;;;;;;;2.97;2.60;;;20.60;72.40;;;;;;5057456;28;20661;-73
2023/07/11 00:47:19;;;;;;;3.47;3.17;;;20.50;72.90;;;;;;5069826;28;20734;-73
2023/07/11 00:49:47;;;;;;;3.27;3.00;;;20.50;72.90;;;;;;5065946;28;20952;-73
2023/07/11 00:52:16;;;;;;;3.10;2.70;;;20.50;73.30;;;;;;5067682;28;20654;-73
2023/07/11 00:54:47;;;;;;;5.10;4.30;;;20.50;73.50;;;;;;5062559;28;20617;-73
2023/07/11 00:57:15;;;;;;;3.30;2.87;;;20.50;74.20;;;;;;5062687;28;20645;-73
2023/07/11 00:59:42;;;;;;;3.07;2.80;;;20.40;74.20;;;;;;5052492;28;20990;-73
2023/07/11 01:02:15;;;;;;;3.83;3.40;;;20.40;74.30;;;;;;5069331;28;20653;-73
2023/07/11 01:04:43;;;;;;;4.27;3.40;;;20.40;75.00;;;;;;5062028;28;21125;-73
2023/07/11 01:07:11;;;;;;;3.77;2.87;;;20.40;74.90;;;;;;5062588;28;20641;-73
2023/07/11 01:09:39;;;;;;;3.10;2.70;;;20.30;75.10;;;;;;5061722;28;21018;-73
2023/07/11 01:12:12;;;;;;;3.17;2.97;;;20.30;75.80;;;;;;5063666;28;21262;-73
2023/07/11 01:14:41;;;;;;;4.33;3.00;;;20.30;75.90;;;;;;5065606;28;20970;-73
2023/07/11 01:17:28;;;;;;;4.33;2.77;;;20.30;75.70;;;;;;5069537;28;20746;-73
2023/07/11 01:19:56;;;;;;;3.20;2.83;;;20.30;74.10;;;;;;5067301;28;20730;-74
2023/07/11 01:22:27;;;;;;;3.30;2.87;;;20.40;74.30;;;;;;5068357;28;20673;-73
2023/07/11 01:24:56;;;;;;;3.93;3.40;;;20.30;73.40;;;;;;5069275;28;21027;-74
2023/07/11 01:27:24;;;;;;;4.90;4.10;;;20.40;73.50;;;;;;5057985;28;20656;-73
2023/07/11 01:29:53;;;;;;;4.37;3.27;;;20.40;72.30;;;;;;5066995;28;20632;-73
2023/07/11 01:32:20;;;;;;;4.50;4.10;;;20.40;71.80;;;;;;5063034;28;21285;-73
2023/07/11 01:34:48;;;;;;;4.67;4.27;;;20.50;70.90;;;;;;5068040;28;20626;-73
2023/07/11 01:37:15;;;;;;;6.80;4.17;;;20.50;71.20;;;;;;5066749;28;20641;-73
2023/07/11 01:39:44;;;;;;;3.33;3.03;;;20.40;71.90;;;;;;5063926;28;20732;-73
2023/07/11 01:42:11;;;;;;;4.10;3.53;;;20.30;70.60;;;;;;5061614;28;20654;-73
2023/07/11 01:44:38;;;;;;;4.33;3.17;;;20.40;71.90;;;;;;5068194;28;21057;-73
2023/07/11 01:47:07;;;;;;;3.27;3.03;;;20.40;71.60;;;;;;5066975;28;20661;-74
2023/07/11 01:49:35;;;;;;;3.77;3.30;;;20.30;72.10;;;;;;5058598;28;20990;-73
2023/07/11 01:52:05;;;;;;;5.00;3.60;;;20.20;72.20;;;;;;5061151;28;20640;-73
2023/07/11 01:54:32;;;;;;;4.20;3.50;;;20.20;71.90;;;;;;5065822;28;20626;-73
2023/07/11 01:57:01;;;;;;;4.50;3.87;;;20.10;72.90;;;;;;5067001;28;21123;-73
2023/07/11 01:59:28;;;;;;;3.30;2.97;;;20.10;73.40;;;;;;5064219;28;20638;-73
2023/07/11 02:01:56;;;;;;;6.80;3.73;;;20.10;72.50;;;;;;5065363;28;20656;-73
2023/07/11 02:04:24;;;;;;;3.80;3.50;;;20.10;73.50;;;;;;5065295;28;20728;-73
2023/07/11 02:06:53;;;;;;;5.50;3.50;;;20.00;73.40;;;;;;5054089;28;20999;-73
2023/07/11 02:09:22;;;;;;;4.03;3.70;;;20.10;74.10;;;;;;5059594;28;20774;-73
2023/07/11 02:11:50;;;;;;;8.03;3.90;;;20.00;74.60;;;;;;5064643;28;20645;-73
2023/07/11 02:14:20;;;;;;;3.13;2.83;;;20.00;74.20;;;;;;5061238;28;20630;-73
2023/07/11 02:16:47;;;;;;;4.20;3.80;;;20.00;73.50;;;;;;5066524;28;21127;-73
2023/07/11 02:19:16;;;;;;;4.70;3.03;;;20.00;73.90;;;;;;5060537;28;21289;-73
2023/07/11 02:21:43;;;;;;;4.20;3.80;;;19.80;74.00;;;;;;5061182;28;20638;-73
2023/07/11 02:24:11;;;;;;;5.93;3.13;;;19.90;74.20;;;;;;5065784;28;20634;-73
2023/07/11 02:26:38;;;;;;;3.67;3.37;;;19.90;74.70;;;;;;5068743;28;20653;-74
2023/07/11 02:29:07;;;;;;;4.13;3.73;;;19.90;73.80;;;;;;5067221;28;20637;-73
2023/07/11 02:31:37;;;;;;;3.67;3.23;;;19.80;74.60;;;;;;5063715;28;20645;-73
2023/07/11 02:34:05;;;;;;;4.30;3.80;;;19.80;73.70;;;;;;5060483;28;20621;-73
2023/07/11 02:36:33;;;;;;;3.73;3.20;;;19.70;73.20;;;;;;5061863;28;20656;-73
2023/07/11 02:39:02;;;;;;;5.50;3.33;;;19.60;73.50;;;;;;5059689;28;21455;-73
2023/07/11 02:41:29;;;;;;;3.00;2.63;;;19.60;73.40;;;;;;5064955;28;20685;-73
2023/07/11 02:43:56;;;;;;;3.47;3.17;;;19.50;73.60;;;;;;5066053;28;20629;-74
2023/07/11 02:46:24;;;;;;;3.70;3.33;;;19.50;73.50;;;;;;5067092;28;20760;-74
2023/07/11 02:48:53;;;;;;;4.30;3.60;;;19.40;74.50;;;;;;5060811;28;21198;-73
2023/07/11 02:51:20;;;;;;;6.93;2.80;;;19.40;74.10;;;;;;5059886;28;20685;-73
2023/07/11 02:53:47;;;;;;;3.90;3.40;;;19.40;74.80;;;;;;5060574;28;20683;-73
2023/07/11 02:56:16;;;;;;;3.30;3.00;;;19.30;74.70;;;;;;5068512;28;20674;-73
2023/07/11 02:58:44;;;;;;;5.87;3.50;;;19.30;76.10;;;;;;5061992;28;20638;-72
2023/07/11 03:01:12;;;;;;;3.43;3.13;;;19.20;76.10;;;;;;5060519;28;20741;-72
2023/07/11 03:03:40;;;;;;;3.80;3.37;;;19.20;77.10;;;;;;5063381;28;20641;-72
2023/07/11 03:06:10;;;;;;;4.67;3.57;;;19.30;75.90;;;;;;5061487;28;20770;-72
2023/07/11 03:08:37;;;;;;;4.20;3.10;;;19.30;75.50;;;;;;5066035;28;21228;-72
2023/07/11 03:11:05;;;;;;;3.60;3.30;;;19.30;75.30;;;;;;5061101;28;21028;-72
2023/07/11 03:13:32;;;;;;;3.03;2.80;;;19.30;75.60;;;;;;5067929;28;21115;-72
2023/07/11 03:16:04;;;;;;;3.57;3.27;;;19.40;76.40;;;;;;5063054;28;20656;-72
2023/07/11 03:18:32;;;;;;;4.80;3.07;;;19.40;75.70;;;;;;5066139;28;20618;-72
2023/07/11 03:21:05;;;;;;;4.67;3.73;;;19.40;77.60;;;;;;5062777;28;20749;-72
2023/07/11 03:23:35;;;;;;;3.43;3.07;;;19.30;77.50;;;;;;5058765;28;20625;-72
2023/07/11 03:26:02;;;;;;;3.23;2.93;;;19.30;78.10;;;;;;5060370;28;20764;-72
2023/07/11 03:28:29;;;;;;;3.70;3.47;;;19.30;77.10;;;;;;5067978;28;20977;-73
2023/07/11 03:30:55;;;;;;;5.73;3.30;;;19.30;77.60;;;;;;5064034;28;20741;-72
2023/07/11 03:33:22;;;;;;;3.73;3.43;;;19.30;77.20;;;;;;5062981;28;20710;-73
2023/07/11 03:35:50;;;;;;;2.90;2.70;;;19.30;76.60;;;;;;5059615;28;20661;-72
2023/07/11 03:38:17;;;;;;;3.80;2.63;;;19.30;77.70;;;;;;5063889;28;20651;-72
2023/07/11 03:40:48;;;;;;;4.40;3.10;;;19.30;78.60;;;;;;5058886;28;20661;-72
2023/07/11 03:43:15;;;;;;;3.43;3.17;;;19.40;77.90;;;;;;5060172;28;20638;-72
2023/07/11 03:45:43;;;;;;;5.37;3.90;;;19.40;77.90;;;;;;5065905;28;20907;-72
2023/07/11 03:48:09;;;;;;;3.53;2.80;;;19.40;76.50;;;;;;5067748;28;20614;-72
2023/07/11 03:50:36;;;;;;;3.70;3.37;;;19.50;76.50;;;;;;5061708;28;20649;-72
2023/07/11 03:53:03;;;;;;;3.80;3.50;;;19.50;76.70;;;;;;5066356;28;20625;-73
2023/07/11 03:55:30;;;;;;;4.50;3.70;;;19.60;76.50;;;;;;5065730;28;20862;-73
2023/07/11 03:57:58;;;;;;;3.33;3.03;;;19.40;77.30;;;;;;5067741;28;20621;-73
2023/07/11 04:00:25;;;;;;;4.57;3.30;;;19.40;77.70;;;;;;5070197;28;21214;-73
2023/07/11 04:02:52;;;;;;;3.47;2.67;;;19.40;77.20;;;;;;5065648;28;20625;-73
2023/07/11 04:05:18;;;;;;;4.47;3.00;;;19.40;78.40;;;;;;5070644;28;20731;-73
2023/07/11 04:07:45;;;;;;;3.90;3.40;;;19.30;78.50;;;;;;5067559;28;20624;-73
2023/07/11 04:10:13;;;;;;;4.80;4.00;;;19.30;78.60;;;;;;5065819;28;20626;-73
2023/07/11 04:12:40;;;;;;;2.90;2.70;;;19.30;78.80;;;;;;5063423;28;20618;-73
2023/07/11 04:15:09;;;;;;;4.77;2.83;;;19.40;78.40;;;;;;5065665;28;20720;-73
2023/07/11 04:17:35;;;;;;;3.93;3.53;;;19.40;79.10;;;;;;5067935;28;20632;-73
2023/07/11 04:20:02;;;;;;;4.57;3.43;;;19.30;79.80;;;;;;5064939;28;20625;-73
2023/07/11 04:22:30;;;;;;;3.43;3.13;;;19.30;79.50;;;;;;5070529;28;20626;-73
2023/07/11 04:24:56;;;;;;;2.90;2.70;;;19.50;78.50;;;;;;5070335;28;20668;-73
2023/07/11 04:27:24;;;;;;;3.60;3.27;;;19.70;77.40;;;;;;5070388;28;20653;-73
2023/07/11 04:29:51;;;;;;;4.10;3.70;;;19.70;77.80;;;;;;5070296;28;20632;-73
2023/07/11 04:32:19;;;;;;;3.53;3.23;;;19.70;78.70;;;;;;5067985;28;20651;-73
2023/07/11 04:34:46;;;;;;;4.17;3.60;;;19.70;80.00;;;;;;5071169;28;20740;-73
2023/07/11 04:37:13;;;;;;;5.80;4.20;;;19.80;79.50;;;;;;5061556;28;20728;-73
2023/07/11 04:39:39;;;;;;;3.17;2.97;;;19.90;77.50;;;;;;5067638;28;21415;-73
2023/07/11 04:42:06;;;;;;;4.03;3.63;;;20.00;76.90;;;;;;5064771;28;20752;-73
2023/07/11 04:44:34;;;;;;;3.70;3.20;;;20.10;76.50;;;;;;5070465;28;20709;-73
2023/07/11 04:47:01;;;;;;;4.30;3.33;;;20.10;78.20;;;;;;5068912;28;20641;-72
2023/07/11 04:49:29;;;;;;;4.50;3.30;;;20.00;79.10;;;;;;5069740;28;20827;-72
2023/07/11 04:51:56;;;;;;;4.50;3.73;;;20.00;80.40;;;;;;5066293;28;20661;-72
2023/07/11 04:54:23;;;;;;;4.63;3.27;;;20.00;80.80;;;;;;5068107;28;20990;-72
2023/07/11 04:56:56;;;;;;;3.90;3.43;;;20.00;81.10;;;;;;5069256;28;20645;-72
2023/07/11 04:59:23;;;;;;;4.00;3.60;;;20.00;81.30;;;;;;5068527;28;20990;-72
2023/07/11 05:01:50;;;;;;;3.50;3.20;;;20.10;81.40;;;;;;5062250;28;20642;-75
2023/07/11 05:04:17;;;;;;;4.60;3.30;;;20.10;81.30;;;;;;5064408;28;20690;-72
2023/07/11 05:06:47;;;;;;;4.37;3.23;;;20.10;81.30;;;;;;5065382;28;21300;-73
2023/07/11 05:09:15;;;;;;;4.17;3.77;;;20.20;81.50;;;;;;5069237;28;20669;-72
2023/07/11 05:11:42;;;;;;;4.00;3.60;;;20.20;80.90;;;;;;5063055;28;20653;-72
2023/07/11 05:14:09;;;;;;;4.20;3.80;;;20.30;80.50;;;;;;5069992;28;20629;-72
2023/07/11 05:16:36;;;;;;;3.53;3.23;;;20.50;80.10;;;;;;5069062;28;20648;-72
2023/07/11 05:19:03;;;;;;;4.33;3.93;;;20.60;80.20;;;;;;5062539;28;20625;-72
2023/07/11 05:21:29;;;;;;;4.90;3.77;;;20.70;77.80;;;;;;5068127;28;20661;-73
2023/07/11 05:23:58;;;;;;;7.10;4.70;;;20.80;77.60;;;;;;5069961;28;20629;-73
2023/07/11 05:26:25;;;;;;;4.30;3.90;;;20.90;77.90;;;;;;5068818;28;20772;-74
2023/07/11 05:28:52;;;;;;;4.80;4.30;;;21.00;76.80;;;;;;5067609;28;20633;-73
2023/07/11 05:31:19;;;;;;;4.10;3.70;;;21.10;75.40;;;;;;5060905;28;20757;-73
2023/07/11 05:33:46;;;;;;;4.63;4.03;;;21.20;75.80;;;;;;5069217;28;20636;-74
2023/07/11 05:36:23;;;;;;;3.67;3.37;;;21.20;74.50;;;;;;5064976;28;20648;-74
2023/07/11 05:38:50;;;;;;;4.37;3.97;;;21.30;75.50;;;;;;5065407;28;20637;-73
2023/07/11 05:41:18;;;;;;;4.20;3.80;;;21.30;76.00;;;;;;5062189;28;20742;-74
2023/07/11 05:43:45;;;;;;;4.43;4.03;;;21.40;74.70;;;;;;5060764;28;20630;-74
2023/07/11 05:46:12;;;;;;;3.73;3.43;;;21.60;75.10;;;;;;5066593;28;20666;-74
2023/07/11 05:48:39;;;;;;;3.50;3.20;;;21.70;74.00;;;;;;5065216;28;20641;-73
2023/07/11 05:51:08;;;;;;;4.00;3.57;;;21.70;73.40;;;;;;5068110;28;20653;-72
2023/07/11 05:53:36;;;;;;;3.20;2.90;;;21.80;74.40;;;;;;5066214;28;20610;-72
2023/07/11 05:56:03;;;;;;;3.67;3.37;;;21.90;72.10;;;;;;5063692;28;20653;-73
2023/07/11 05:58:32;;;;;;;4.00;3.20;;;21.90;71.70;;;;;;5059597;28;20633;-73
2023/07/11 06:01:00;;;;;;;4.40;3.40;;;21.90;73.10;;;;;;5059237;28;20998;-72
2023/07/11 06:03:29;;;;;;;4.90;3.43;;;22.00;72.20;;;;;;5069016;28;21166;-72
2023/07/11 06:06:00;;;;;;;4.43;3.40;;;22.10;71.50;;;;;;5057582;28;20668;-72
2023/07/11 06:08:27;;;;;;;4.77;3.90;;;22.10;70.50;;;;;;5063448;28;20647;-72
2023/07/11 06:10:57;;;;;;;3.07;2.80;;;22.30;71.90;;;;;;5063874;28;20669;-72
2023/07/11 06:13:25;;;;;;;4.27;3.60;;;22.40;71.60;;;;;;5067176;28;21066;-71
2023/07/11 06:15:57;;;;;;;6.53;3.40;;;22.50;70.20;;;;;;5066595;28;21111;-71
2023/07/11 06:18:24;;;;;;;3.53;3.23;;;22.60;70.20;;;;;;5068621;28;20936;-72
2023/07/11 06:20:51;;;;;;;4.20;3.87;;;22.70;69.80;;;;;;5067357;28;20654;-72
2023/07/11 06:23:18;;;;;;;3.87;3.43;;;22.80;70.40;;;;;;5066501;28;20626;-72
2023/07/11 06:25:45;;;;;;;3.37;3.07;;;23.00;69.60;;;;;;5061582;28;21239;-72
2023/07/11 06:28:12;;;;;;;4.80;3.57;;;23.10;69.40;;;;;;5066015;28;20632;-72
2023/07/11 06:30:41;;;;;;;3.67;3.37;;;23.20;68.90;;;;;;5060075;28;20654;-72
2023/07/11 06:33:09;;;;;;;4.20;3.57;;;23.30;69.00;;;;;;5061286;28;20630;-72
2023/07/11 06:35:37;;;;;;;4.10;3.70;;;23.40;67.60;;;;;;5067199;28;20645;-72
2023/07/11 06:38:03;;;;;;;4.50;3.07;;;23.50;67.50;;;;;;5065080;28;20620;-72
2023/07/11 06:40:30;;;;;;;5.00;3.40;;;23.60;65.30;;;;;;5064134;28;20763;-72
2023/07/11 06:42:57;;;;;;;3.03;2.60;;;23.70;66.20;;;;;;5065992;28;20729;-72
2023/07/11 06:45:24;;;;;;;3.20;3.00;;;23.80;65.00;;;;;;5067493;28;20652;-72
2023/07/11 06:47:51;;;;;;;3.50;3.20;;;23.90;64.80;;;;;;5064853;28;20929;-72
2023/07/11 06:50:19;;;;;;;4.30;3.50;;;24.00;64.70;;;;;;5066706;28;21411;-71
2023/07/11 06:52:46;;;;;;;3.93;3.63;;;24.10;64.80;;;;;;5056842;28;20621;-72
2023/07/11 06:55:13;;;;;;;3.23;2.90;;;24.30;63.10;;;;;;5065880;28;20633;-72
2023/07/11 06:57:40;;;;;;;3.27;2.97;;;24.40;61.80;;;;;;5061327;28;20622;-72
2023/07/11 07:00:09;;;;;;;4.37;3.20;;;24.50;61.10;;;;;;5066242;28;20692;-71
2023/07/11 07:02:38;;;;;;;3.20;3.00;;;24.70;59.90;;;;;;5060060;28;20659;-71
2023/07/11 07:05:05;;;;;;;4.00;3.60;;;24.90;59.70;;;;;;5060852;28;20623;-72
2023/07/11 07:07:33;;;;;;;3.53;3.27;;;24.90;60.10;;;;;;5058151;28;20730;-72
2023/07/11 07:10:02;;;;;;;3.00;2.80;;;25.00;59.70;;;;;;5060054;28;21085;-71
2023/07/11 07:12:29;;;;;;;4.03;2.80;;;25.10;59.50;;;;;;5058295;28;20739;-70
2023/07/11 07:14:56;;;;;;;3.77;3.33;;;25.30;59.40;;;;;;5062200;28;20647;-71
2023/07/11 07:17:23;;;;;;;4.00;3.10;;;25.40;59.00;;;;;;5059288;28;20665;-71
2023/07/11 07:19:58;;;;;;;5.40;3.13;;;25.50;59.10;;;;;;5057323;28;20632;-71
2023/07/11 07:22:30;;;;;;;3.60;3.30;;;25.50;59.00;;;;;;5060278;28;20649;-72
2023/07/11 07:25:01;;;;;;;3.40;3.10;;;25.60;59.20;;;;;;5056394;28;20634;-71
2023/07/11 07:27:29;;;;;;;4.90;3.60;;;25.80;59.40;;;;;;5061716;28;21324;-71
2023/07/11 07:29:59;;;;;;;4.20;3.57;;;25.90;58.20;;;;;;5055611;28;20784;-71
2023/07/11 07:32:41;;;;;;;3.40;3.10;;;26.00;57.80;;;;;;5054198;28;20665;-71
2023/07/11 07:35:15;;;;;;;3.47;3.10;;;26.10;57.40;;;;;;5054762;28;21238;-73
2023/07/11 07:37:42;;;;;;;4.13;3.80;;;26.20;57.50;;;;;;5053521;28;20632;-73
2023/07/11 07:40:11;;;;;;;3.87;3.47;;;26.30;57.60;;;;;;5058944;28;20628;-73
2023/07/11 07:42:37;;;;;;;3.80;3.60;;;26.50;57.30;;;;;;5056475;28;20721;-73
2023/07/11 07:45:05;;;;;;;3.90;3.60;;;26.60;57.90;;;;;;5059909;28;20628;-73
2023/07/11 07:47:35;;;;;;;3.50;3.27;;;26.70;57.70;;;;;;5059694;28;20655;-73
2023/07/11 07:50:02;;;;;;;4.90;3.67;;;26.80;57.20;;;;;;5058793;28;20625;-73
2023/07/11 07:52:28;;;;;;;4.33;3.90;;;26.90;57.80;;;;;;5063659;28;21440;-72
2023/07/11 07:54:55;;;;;;;4.03;3.70;;;26.90;57.60;;;;;;5061667;28;20631;-73
2023/07/11 07:57:23;;;;;;;4.37;3.20;;;26.90;56.70;;;;;;5060185;28;20655;-73
2023/07/11 07:59:50;;;;;;;3.93;2.93;;;27.00;57.20;;;;;;5057474;28;20627;-73
2023/07/11 08:02:17;;;;;;;4.60;3.43;;;27.20;57.00;;;;;;5065281;28;20653;-72
2023/07/11 08:04:46;;;;;;;4.23;3.50;;;27.30;56.90;;;;;;5063796;28;20628;-72
2023/07/11 08:07:12;;;;;;;5.10;3.47;;;27.40;57.00;;;;;;5058219;28;20765;-72
2023/07/11 08:09:39;;;;;;;5.27;4.10;;;27.40;56.80;;;;;;5065280;28;20633;-72
2023/07/11 08:12:07;;;;;;;4.10;3.70;;;27.40;57.40;;;;;;5061741;28;20760;-73
2023/07/11 08:14:37;;;;;;;5.80;4.07;;;27.60;56.50;;;;;;5061155;28;20629;-73
2023/07/11 08:17:25;;;;;;;5.73;4.17;;;27.80;56.70;;;;;;5052609;28;20737;-73
2023/07/11 08:24:17;;;;;;;3.50;3.07;;;28.20;55.80;;;;;;4968971;28;20866;-73
2023/07/11 08:33:28;;;;;;;3.53;3.10;;;28.70;55.20;;;;;;5053613;28;20634;-71
2023/07/11 08:35:56;;;;;;;3.40;3.13;;;28.80;55.40;;;;;;5061973;28;20653;-70
2023/07/11 08:38:23;;;;;;;4.03;3.73;;;28.80;56.60;;;;;;5062414;28;20693;-70
2023/07/11 08:40:50;;;;;;;4.47;4.07;;;29.00;55.30;;;;;;5066024;28;20649;-70
2023/07/11 08:43:22;;;;;;;5.10;3.97;;;29.10;55.40;;;;;;5064847;28;20621;-71
2023/07/11 08:45:53;;;;;;;4.10;3.80;;;29.10;55.10;;;;;;5059949;28;20644;-72
2023/07/11 08:48:25;;;;;;;4.50;4.10;;;29.30;55.50;;;;;;5064485;28;20713;-70
2023/07/11 08:51:03;;;;;;;4.10;3.70;;;29.50;55.60;;;;;;5061903;28;20695;-72
2023/07/11 08:53:33;;;;;;;4.47;4.07;;;29.70;55.30;;;;;;5063043;28;20625;-69
2023/07/11 08:56:08;;;;;;;4.60;4.17;;;29.70;55.70;;;;;;5062096;28;21264;-71
2023/07/11 08:58:37;;;;;;;5.80;4.73;;;29.80;55.70;;;;;;5059911;28;20628;-72
2023/07/11 09:01:15;;;;;;;4.40;3.67;;;29.80;55.20;;;;;;5056631;28;20656;-72
2023/07/11 09:03:48;;;;;;;4.40;4.00;;;29.90;54.50;;;;;;5062747;28;20618;-71
2023/07/11 09:06:20;;;;;;;4.60;4.13;;;29.90;55.00;;;;;;5060951;28;20997;-72
2023/07/11 09:08:54;;;;;;;4.43;4.00;;;30.20;55.20;;;;;;5066165;28;20984;-72
2023/07/11 09:11:25;;;;;;;5.00;4.30;;;30.30;55.10;;;;;;5059435;28;21065;-72
2023/07/11 09:14:00;;;;;;;4.70;4.30;;;30.40;54.80;;;;;;5060183;28;20679;-73
2023/07/11 09:16:35;;;;;;;4.93;4.43;;;30.50;54.10;;;;;;5059100;28;20733;-70
2023/07/11 09:19:11;;;;;;;4.40;4.10;;;30.50;55.10;;;;;;5055647;28;20626;-71
2023/07/11 09:21:51;;;;;;;4.93;4.53;;;30.60;55.30;;;;;;5057969;28;20657;-71
2023/07/11 09:24:30;;;;;;;4.20;3.90;;;30.60;55.70;;;;;;5057461;28;20632;-72
2023/07/11 09:27:01;;;;;;;5.37;4.87;;;30.60;54.80;;;;;;5060686;28;20758;-71
2023/07/11 09:29:29;;;;;;;4.50;4.10;;;30.60;55.00;;;;;;5063718;28;20617;-70
2023/07/11 09:31:59;;;;;;;4.40;4.00;;;30.90;53.90;;;;;;5059928;28;20650;-70
2023/07/11 09:34:33;;;;;;;4.97;4.57;;;31.10;54.10;;;;;;5058561;28;20622;-71
2023/07/11 09:37:13;;;;;;;7.03;3.93;;;31.10;53.70;;;;;;5059099;28;20641;-69
2023/07/11 09:39:43;;;;;;;5.13;4.80;;;31.20;54.00;;;;;;5060466;28;20763;-70
2023/07/11 09:42:19;;;;;;;4.30;4.00;;;31.50;53.70;;;;;;5057160;28;20647;-70
2023/07/11 09:44:58;;;;;;;4.50;4.10;;;31.70;53.80;;;;;;5056823;28;20629;-70
2023/07/11 09:47:30;;;;;;;5.13;4.40;;;31.70;53.20;;;;;;5060421;28;21163;-70
2023/07/11 09:49:57;;;;;;;4.87;4.47;;;31.80;53.10;;;;;;5067805;28;21193;-70
2023/07/11 09:52:28;;;;;;;4.10;3.80;;;31.90;52.20;;;;;;5063188;28;21213;-70
2023/07/11 09:54:56;;;;;;;4.70;4.30;;;31.90;53.10;;;;;;5062914;28;20626;-70
2023/07/11 09:57:23;;;;;;;4.77;4.37;;;32.00;53.30;;;;;;5061015;28;21212;-72
2023/07/11 09:59:55;;;;;;;3.90;3.50;;;32.00;53.20;;;;;;5053045;28;20633;-72
2023/07/11 10:02:22;;;;;;;4.17;3.83;;;32.00;52.40;;;;;;5058774;28;20662;-72
2023/07/11 10:04:51;;;;;;;4.63;4.23;;;32.20;52.90;;;;;;5067703;28;20617;-72
2023/07/11 10:07:21;;;;;;;4.27;3.93;;;32.40;51.80;;;;;;5058553;28;20661;-72
2023/07/11 10:09:51;;;;;;;5.60;5.20;;;32.50;50.40;;;;;;5061687;28;20783;-72
2023/07/11 10:12:21;;;;;;;4.60;4.20;;;32.70;50.20;;;;;;5059896;28;20661;-72
2023/07/11 10:14:54;;;;;;;4.87;4.53;;;32.90;49.80;;;;;;5060130;28;20764;-72
2023/07/11 10:17:25;;;;;;;4.40;4.10;;;33.00;49.60;;;;;;5057028;28;21222;-72
2023/07/11 10:19:56;;;;;;;4.37;3.97;;;32.80;50.30;;;;;;5056831;28;20684;-72
2023/07/11 10:22:26;;;;;;;4.57;4.17;;;32.60;50.70;;;;;;5063386;28;20683;-73
2023/07/11 10:24:59;;;;;;;4.00;3.70;;;32.90;50.60;;;;;;5067344;28;20870;-72
2023/07/11 10:27:30;;;;;;;4.93;4.37;;;33.30;49.80;;;;;;5061840;28;20722;-72
2023/07/11 10:30:00;;;;;;;4.00;3.70;;;33.50;49.90;;;;;;5068176;28;20632;-72
2023/07/11 10:32:33;;;;;;;4.40;4.00;;;33.10;49.70;;;;;;5055235;28;20653;-72
2023/07/11 10:35:01;;;;;;;5.40;4.10;;;33.10;50.00;;;;;;5067702;28;20628;-72
2023/07/11 10:37:33;;;;;;;4.03;3.73;;;33.20;50.40;;;;;;5067321;28;20629;-72
2023/07/11 10:40:06;;;;;;;4.20;3.80;;;33.30;50.30;;;;;;5057201;28;21198;-72
2023/07/11 10:42:39;;;;;;;4.57;4.17;;;33.30;50.40;;;;;;5056958;28;20630;-71
2023/07/11 10:45:13;;;;;;;5.07;4.67;;;33.30;50.10;;;;;;5057975;28;20695;-72
2023/07/11 10:47:47;;;;;;;5.10;4.60;;;33.50;49.60;;;;;;5065965;28;20649;-71
2023/07/11 10:50:30;;;;;;;5.13;4.67;;;33.60;49.80;;;;;;5065538;28;20620;-72
2023/07/11 10:53:01;;;;;;;4.93;4.53;;;33.80;50.40;;;;;;5066302;28;20629;-71
2023/07/11 10:55:36;;;;;;;5.60;5.10;;;34.10;49.00;;;;;;5067680;28;21225;-72
2023/07/11 10:58:04;;;;;;;5.10;4.60;;;34.30;50.80;;;;;;5063998;28;20648;-72
2023/07/11 11:00:49;;;;;;;5.47;4.97;;;34.40;49.30;;;;;;5057880;28;20826;-72
2023/07/11 11:03:29;;;;;;;5.37;4.87;;;34.50;48.70;;;;;;5067776;28;20621;-72
2023/07/11 11:06:01;;;;;;;5.13;4.73;;;34.40;48.10;;;;;;5057472;28;20654;-75
2023/07/11 11:08:39;;;;;;;4.77;4.37;;;33.90;48.90;;;;;;5062228;28;20657;-73
2023/07/11 11:11:17;;;;;;;5.80;5.30;;;33.40;49.30;;;;;;5058236;28;20642;-72
2023/07/11 11:13:51;;;;;;;5.50;4.97;;;33.90;49.60;;;;;;5062735;28;20963;-73
2023/07/11 11:16:26;;;;;;;4.70;4.40;;;33.90;49.60;;;;;;5065008;28;20635;-73
2023/07/11 11:19:05;;;;;;;5.33;4.93;;;33.90;49.80;;;;;;5061474;28;20627;-72
2023/07/11 11:21:39;;;;;;;5.33;4.83;;;33.80;50.60;;;;;;5063704;28;21019;-72
2023/07/11 11:24:18;;;;;;;5.00;4.60;;;33.70;49.40;;;;;;5058299;28;20631;-73
2023/07/11 11:26:56;;;;;;;4.70;4.40;;;33.50;48.90;;;;;;5063553;28;20649;-73
2023/07/11 11:29:40;;;;;;;6.03;5.53;;;33.90;49.80;;;;;;5066567;28;20632;-73
2023/07/11 11:32:16;;;;;;;5.67;5.27;;;34.10;49.00;;;;;;5059598;28;20648;-73
2023/07/11 11:34:56;;;;;;;4.40;4.10;;;34.30;48.20;;;;;;5066648;28;20646;-73
2023/07/11 11:37:34;;;;;;;5.30;4.87;;;34.30;49.30;;;;;;5058268;28;21236;-73
2023/07/11 11:40:04;;;;;;;4.70;4.40;;;34.20;48.60;;;;;;5061874;28;20625;-73
2023/07/11 11:42:35;;;;;;;5.30;4.90;;;34.00;49.00;;;;;;5059476;28;20633;-73
2023/07/11 11:45:04;;;;;;;5.20;4.70;;;34.00;48.80;;;;;;5058935;28;20652;-73
2023/07/11 11:47:34;;;;;;;4.87;4.47;;;33.80;49.70;;;;;;5064744;28;20963;-73
2023/07/11 11:50:01;;;;;;;5.53;5.07;;;33.90;49.70;;;;;;5057259;28;20632;-73
2023/07/11 11:52:32;;;;;;;5.80;5.27;;;34.00;49.30;;;;;;5066873;28;20644;-73
2023/07/11 11:54:59;;;;;;;4.70;4.30;;;33.90;49.60;;;;;;5063437;28;20626;-73
2023/07/11 11:57:29;;;;;;;4.90;4.50;;;34.30;49.90;;;;;;5057087;28;21020;-73
2023/07/11 11:59:58;;;;;;;5.70;5.20;;;34.60;47.90;;;;;;5056037;28;21092;-73
2023/07/11 12:02:32;;;;;;;4.73;4.33;;;34.80;48.20;;;;;;5065457;28;20656;-73
2023/07/11 12:05:02;;;;;;;4.87;4.47;;;35.00;47.40;;;;;;5065808;28;20628;-73
2023/07/11 12:07:31;;;;;;;5.03;4.63;;;34.90;47.50;;;;;;5061393;28;20661;-73
2023/07/11 12:10:17;;;;;;;4.77;4.40;;;34.30;47.90;;;;;;5065060;28;20627;-72
2023/07/11 12:13:16;;;;;;;4.33;4.03;;;34.30;48.50;;;;;;5068741;28;20625;-72
2023/07/11 12:15:52;;;;;;;5.17;4.73;;;35.60;47.90;;;;;;5067112;28;20633;-73
2023/07/11 12:18:37;;;;;;;4.50;4.10;;;37.70;45.30;;;;;;5068328;28;20620;-72
2023/07/11 12:21:29;;;;;;;5.23;4.83;;;39.30;43.20;;;;;;5061994;28;21004;-73
2023/07/11 12:24:26;;;;;;;4.77;4.43;;;40.30;42.30;;;;;;5063989;28;20632;-72
2023/07/11 12:26:54;;;;;;;5.40;4.90;;;41.20;40.20;;;;;;5067332;28;20231;-72
2023/07/11 12:29:38;;;;;;;5.25;4.22;;;41.60;40.10;;;;;;5069817;28;20293;-72
2023/07/11 12:32:36;;;;;;;3.60;3.28;;;41.90;39.80;;;;;;5070959;28;20590;-72
2023/07/11 12:35:16;;;;;;;3.92;3.70;;;42.30;39.30;;;;;;5070573;28;20675;-72
2023/07/11 12:37:51;;;;;;;4.22;3.92;;;43.20;38.70;;;;;;5063741;28;20221;-71
2023/07/11 12:40:27;;;;;;;5.10;4.70;;;43.30;37.10;;;;;;5060822;28;20777;-72
2023/07/11 12:42:56;;;;;;;5.07;4.60;;;43.10;36.90;;;;;;5062632;28;20629;-72
2023/07/11 12:45:25;;;;;;;4.85;4.47;;;43.50;38.60;;;;;;5062319;28;20209;-72
2023/07/11 12:48:00;;;;;;;4.28;3.97;;;43.90;36.40;;;;;;5069490;28;20201;-72
2023/07/11 12:50:33;;;;;;;4.30;4.00;;;44.00;35.50;;;;;;5060664;28;20678;-72
2023/07/11 12:53:02;;;;;;;4.60;4.30;;;43.20;35.90;;;;;;5070908;28;20199;-72
2023/07/11 12:55:31;;;;;;;4.65;4.35;;;44.20;35.50;;;;;;5067377;28;20222;-72
2023/07/11 12:57:58;;;;;;;4.13;3.83;;;44.80;34.80;;;;;;5070348;28;20214;-71
2023/07/11 13:00:29;;;;;;;3.70;3.42;;;45.30;35.00;;;;;;5062277;28;20302;-71
2023/07/11 13:03:00;;;;;;;4.05;3.80;;;45.50;34.30;;;;;;5061157;28;20643;-72
2023/07/11 13:05:27;;;;;;;4.32;4.03;;;45.50;34.10;;;;;;5062304;28;20231;-71
2023/07/11 13:07:54;;;;;;;3.90;3.60;;;45.80;33.80;;;;;;5062966;28;20212;-72
2023/07/11 13:10:24;;;;;;;4.38;4.07;;;44.90;33.40;;;;;;5059039;28;20669;-72
2023/07/11 13:12:52;;;;;;;4.10;3.85;;;44.70;34.90;;;;;;5057486;28;20703;-71